Time;durP1;ratioP1;P1;durP2;ratioP2;P2;SDS_P1;SDS_P2;PMS_P1;PMS_P2;Temp;Humidity;BMP_temperature;BMP_pressure;BME280_temperature;BME280_humidity;BME280_pressure;Samples;Min_cycle;Max_cycle;Signal;HPM_P1;HPM_P2
2022/01/10 00:04:46;;;;;;;8.00;3.53;;;5.60;94.30;;;;;;20838484;28;20272;-66
2022/01/10 00:14:48;;;;;;;12.43;4.33;;;5.70;94.50;;;;;;20841858;28;20263;-65
2022/01/10 00:24:50;;;;;;;6.47;3.53;;;5.60;94.60;;;;;;20836062;28;20236;-66
2022/01/10 00:34:51;;;;;;;9.87;3.73;;;5.50;94.50;;;;;;20835485;28;20232;-65
2022/01/10 00:44:55;;;;;;;9.37;4.40;;;5.50;94.50;;;;;;20833708;28;20699;-64
2022/01/10 00:54:57;;;;;;;8.23;4.60;;;5.60;94.70;;;;;;20833763;28;20206;-66
2022/01/10 01:05:06;;;;;;;9.83;4.47;;;5.60;94.70;;;;;;20833301;28;20292;-66
2022/01/10 01:15:19;;;;;;;9.60;4.87;;;5.50;94.80;;;;;;20832264;28;20256;-66
2022/01/10 01:25:21;;;;;;;9.60;4.33;;;5.50;95.10;;;;;;20828735;28;20237;-64
2022/01/10 01:35:25;;;;;;;8.63;4.47;;;5.40;95.00;;;;;;20831368;28;20287;-65
2022/01/10 01:45:56;;;;;;;8.03;3.90;;;5.50;95.30;;;;;;20829096;28;20577;-66
2022/01/10 01:55:58;;;;;;;7.97;4.13;;;5.60;95.10;;;;;;20836219;28;20335;-66
2022/01/10 02:06:00;;;;;;;8.93;4.00;;;5.60;95.30;;;;;;20829567;28;20232;-66
2022/01/10 02:16:05;;;;;;;10.57;4.10;;;5.60;95.10;;;;;;20829210;28;20213;-66
2022/01/10 02:26:06;;;;;;;11.37;4.60;;;5.60;95.00;;;;;;20828643;28;20287;-66
2022/01/10 02:36:24;;;;;;;9.43;4.43;;;5.60;95.10;;;;;;20828470;28;20279;-66
2022/01/10 02:46:26;;;;;;;10.60;4.50;;;5.60;94.90;;;;;;20827792;28;20250;-66
2022/01/10 02:56:28;;;;;;;6.97;4.00;;;5.40;94.90;;;;;;20827499;28;20208;-66
2022/01/10 03:13:43;;;;;;;10.30;4.40;;;5.40;95.00;;;;;;20984362;28;20573;-65
2022/01/10 03:23:46;;;;;;;8.63;4.37;;;5.40;95.10;;;;;;20975289;28;20201;-66
2022/01/10 03:33:48;;;;;;;11.80;4.70;;;5.40;95.00;;;;;;20981723;28;20211;-66
2022/01/10 03:43:50;;;;;;;10.97;4.27;;;5.40;94.90;;;;;;20982001;28;20223;-65
2022/01/10 03:53:52;;;;;;;8.17;4.57;;;5.30;95.00;;;;;;20981250;28;20210;-66
2022/01/10 04:03:54;;;;;;;10.93;4.33;;;5.10;94.90;;;;;;20980237;28;20202;-66
2022/01/10 04:13:56;;;;;;;9.30;4.63;;;5.00;95.00;;;;;;20979312;28;20219;-66
2022/01/10 04:23:58;;;;;;;17.63;4.87;;;4.90;95.30;;;;;;20930002;28;20208;-65
2022/01/10 04:34:00;;;;;;;9.20;4.93;;;4.90;95.50;;;;;;20923510;28;20219;-66
2022/01/10 04:44:01;;;;;;;8.43;4.90;;;4.90;95.50;;;;;;20922539;28;20250;-66
2022/01/10 04:54:03;;;;;;;12.97;5.10;;;4.80;95.40;;;;;;20921784;28;20232;-66
2022/01/10 05:04:05;;;;;;;10.10;4.83;;;4.90;95.80;;;;;;20920953;28;20237;-66
2022/01/10 05:14:07;;;;;;;9.93;4.20;;;4.80;95.60;;;;;;20920090;28;20212;-65
2022/01/10 05:24:08;;;;;;;11.10;5.20;;;4.80;95.40;;;;;;20871915;28;20211;-65
2022/01/10 05:34:11;;;;;;;14.20;5.43;;;4.80;95.60;;;;;;20834505;28;20222;-64
2022/01/10 05:44:12;;;;;;;11.13;5.07;;;4.80;95.60;;;;;;20834725;28;20323;-65
2022/01/10 05:54:14;;;;;;;10.83;4.60;;;4.90;95.60;;;;;;20834313;28;20259;-64
2022/01/10 06:04:16;;;;;;;11.90;5.03;;;4.80;95.60;;;;;;20830354;28;20774;-66
2022/01/10 06:14:17;;;;;;;14.00;4.97;;;4.80;95.60;;;;;;20831191;28;20545;-66
2022/01/10 06:24:19;;;;;;;11.47;5.57;;;4.80;95.60;;;;;;20831494;28;20287;-67
2022/01/10 06:34:22;;;;;;;12.40;5.17;;;4.80;95.80;;;;;;20830518;28;20671;-65
2022/01/10 06:44:25;;;;;;;15.27;7.00;;;4.80;95.60;;;;;;20829169;28;20635;-64
2022/01/10 06:54:27;;;;;;;15.63;6.43;;;4.80;95.70;;;;;;20829265;28;20217;-65
2022/01/10 07:04:28;;;;;;;12.93;6.27;;;4.80;95.80;;;;;;20828677;28;20232;-65
2022/01/10 07:14:32;;;;;;;9.03;5.70;;;4.90;95.70;;;;;;20829356;28;20212;-65
2022/01/10 07:24:39;;;;;;;11.50;5.83;;;4.80;95.60;;;;;;20829032;28;20228;-66
2022/01/10 07:34:41;;;;;;;20.40;7.10;;;4.80;96.00;;;;;;20826175;28;20208;-66
2022/01/10 07:44:43;;;;;;;17.77;6.40;;;4.80;96.30;;;;;;20826802;28;20306;-67
2022/01/10 07:54:45;;;;;;;19.13;7.10;;;4.80;95.90;;;;;;20833321;28;20266;-66
2022/01/10 08:04:47;;;;;;;16.13;7.60;;;4.90;96.30;;;;;;20842519;28;20236;-67
2022/01/10 08:14:49;;;;;;;15.33;8.10;;;4.90;95.90;;;;;;20841269;28;20676;-66
2022/01/10 08:24:52;;;;;;;16.87;8.10;;;4.80;95.90;;;;;;20839874;28;20319;-65
2022/01/10 08:34:55;;;;;;;18.87;7.77;;;4.80;96.00;;;;;;20838653;28;20239;-65
2022/01/10 08:44:57;;;;;;;14.53;7.93;;;4.70;96.00;;;;;;20838882;28;20310;-65
2022/01/10 08:54:59;;;;;;;16.97;8.30;;;4.60;96.00;;;;;;20838238;28;20616;-64
2022/01/10 09:05:00;;;;;;;14.83;8.47;;;4.60;96.10;;;;;;20838012;28;20659;-66
2022/01/10 09:15:05;;;;;;;21.17;10.77;;;4.60;96.20;;;;;;20851912;28;20215;-66
2022/01/10 09:25:07;;;;;;;23.97;11.27;;;4.70;96.20;;;;;;20834956;28;20232;-66
2022/01/10 09:35:09;;;;;;;16.87;9.57;;;4.60;96.20;;;;;;20833871;28;20212;-66
2022/01/10 09:45:11;;;;;;;17.97;8.90;;;5.10;96.40;;;;;;20834276;28;20592;-67
2022/01/10 09:55:13;;;;;;;17.93;8.77;;;5.30;96.50;;;;;;20833521;28;20205;-67
2022/01/10 10:05:16;;;;;;;19.90;9.27;;;5.70;96.00;;;;;;20832704;28;20246;-66
2022/01/10 10:15:22;;;;;;;16.90;8.80;;;5.80;95.80;;;;;;20831270;28;20554;-66
2022/01/10 10:25:24;;;;;;;22.90;9.20;;;5.90;95.80;;;;;;20831363;28;20301;-67
2022/01/10 10:35:25;;;;;;;23.73;11.50;;;6.20;95.70;;;;;;20831544;28;20567;-67
2022/01/10 10:45:28;;;;;;;16.30;8.73;;;6.20;95.90;;;;;;20829673;28;20246;-66
2022/01/10 10:55:29;;;;;;;17.67;8.63;;;6.20;95.40;;;;;;20829077;28;20292;-67
2022/01/10 11:05:33;;;;;;;18.23;8.53;;;6.20;95.60;;;;;;20828006;28;20247;-68
2022/01/10 11:15:39;;;;;;;19.33;9.20;;;6.10;95.50;;;;;;20829581;28;20203;-67
2022/01/10 11:25:42;;;;;;;19.80;9.73;;;6.30;95.50;;;;;;20828210;28;20636;-65
2022/01/10 11:35:44;;;;;;;18.53;10.33;;;6.60;95.30;;;;;;20842920;28;20214;-66
2022/01/10 11:45:47;;;;;;;16.80;9.80;;;6.60;95.20;;;;;;20842532;28;20246;-67
2022/01/10 11:55:54;;;;;;;14.93;8.30;;;6.70;95.40;;;;;;20842831;28;20211;-67
2022/01/10 12:05:56;;;;;;;21.37;8.70;;;6.90;95.10;;;;;;20840795;28;20287;-66
2022/01/10 12:15:59;;;;;;;20.93;8.83;;;7.00;95.00;;;;;;20838809;28;20209;-67
2022/01/10 12:26:01;;;;;;;19.77;8.73;;;7.20;94.90;;;;;;20840013;28;20710;-67
2022/01/10 12:36:05;;;;;;;22.27;9.77;;;7.30;95.20;;;;;;20839613;28;20232;-65
2022/01/10 12:46:07;;;;;;;13.33;6.97;;;7.40;94.60;;;;;;20837953;28;20235;-66
2022/01/10 12:56:09;;;;;;;16.83;8.10;;;7.40;94.10;;;;;;20837514;28;20659;-67
2022/01/10 13:06:11;;;;;;;15.07;7.83;;;7.40;94.40;;;;;;20836808;28;20342;-66
2022/01/10 13:16:29;;;;;;;15.17;8.33;;;7.40;94.30;;;;;;20837292;28;20201;-66
2022/01/10 13:26:32;;;;;;;21.83;7.93;;;7.40;94.00;;;;;;20865239;28;20292;-67
2022/01/10 13:36:43;;;;;;;17.40;7.33;;;7.40;94.30;;;;;;20914205;28;20210;-67
2022/01/10 13:46:45;;;;;;;22.67;7.80;;;7.50;94.10;;;;;;20919372;28;20260;-68
2022/01/10 13:56:47;;;;;;;18.30;8.37;;;7.50;94.00;;;;;;20925521;28;20211;-68
2022/01/10 14:06:48;;;;;;;19.33;8.63;;;7.50;93.80;;;;;;20925140;28;20246;-67
2022/01/10 14:16:55;;;;;;;13.07;7.03;;;7.60;94.10;;;;;;20936509;28;20217;-67
2022/01/10 14:26:56;;;;;;;13.80;7.30;;;7.40;93.50;;;;;;20919251;28;20273;-67
2022/01/10 14:36:58;;;;;;;16.43;7.90;;;7.30;93.60;;;;;;20914586;28;20242;-67
2022/01/10 14:47:00;;;;;;;16.87;8.40;;;7.40;93.70;;;;;;20913102;28;20245;-68
2022/01/10 15:03:26;;;;;;;17.13;8.20;;;7.30;93.60;;;;;;20983695;28;20577;-66
2022/01/10 15:13:28;;;;;;;13.47;7.97;;;7.30;94.00;;;;;;20981653;28;20216;-66
2022/01/10 15:23:32;;;;;;;20.90;8.67;;;7.10;94.20;;;;;;20978147;28;20209;-65
2022/01/10 15:33:34;;;;;;;15.90;9.37;;;7.00;94.40;;;;;;20896359;28;20207;-65
2022/01/10 15:43:36;;;;;;;21.43;9.70;;;7.20;94.70;;;;;;20895679;28;20276;-64
2022/01/10 15:53:38;;;;;;;27.30;9.27;;;7.10;94.70;;;;;;20898162;28;20266;-63
2022/01/10 16:03:40;;;;;;;19.93;9.37;;;7.10;94.80;;;;;;20895784;28;20247;-65
2022/01/10 16:13:46;;;;;;;20.17;9.27;;;7.10;95.10;;;;;;20846917;28;20261;-64
2022/01/10 16:23:48;;;;;;;21.17;9.53;;;7.00;95.00;;;;;;20839297;28;20732;-66
2022/01/10 16:33:53;;;;;;;17.80;9.50;;;7.00;95.30;;;;;;20840135;28;20230;-65
2022/01/10 16:43:54;;;;;;;22.03;8.97;;;7.00;95.10;;;;;;20839615;28;20767;-71
2022/01/10 16:53:58;;;;;;;18.50;9.20;;;6.90;95.20;;;;;;20839192;28;20245;-67
2022/01/10 17:04:00;;;;;;;23.53;9.63;;;6.80;95.30;;;;;;20838920;28;20644;-65
2022/01/10 17:14:02;;;;;;;19.97;10.03;;;6.80;95.50;;;;;;20837334;28;20388;-64
2022/01/10 17:24:04;;;;;;;21.00;10.40;;;6.70;95.50;;;;;;20834287;28;20714;-67
2022/01/10 17:34:05;;;;;;;18.20;10.20;;;6.80;95.70;;;;;;20833936;28;20230;-63
2022/01/10 17:44:07;;;;;;;22.63;10.60;;;6.80;95.80;;;;;;20850358;28;20206;-63
2022/01/10 17:54:09;;;;;;;24.43;10.93;;;6.80;95.70;;;;;;20917332;28;20246;-63
2022/01/10 18:04:11;;;;;;;22.33;11.53;;;6.80;95.80;;;;;;20859671;28;20658;-67
2022/01/10 18:14:12;;;;;;;25.37;12.37;;;6.70;95.80;;;;;;20914187;28;20237;-68
2022/01/10 18:24:14;;;;;;;24.03;12.20;;;6.60;96.00;;;;;;20913461;28;20205;-68
2022/01/10 18:34:19;;;;;;;24.37;12.20;;;6.60;96.30;;;;;;20909702;28;20232;-71
2022/01/10 18:44:22;;;;;;;28.97;14.73;;;6.60;96.10;;;;;;20910221;28;20210;-65
2022/01/10 18:54:24;;;;;;;21.03;11.77;;;6.60;96.10;;;;;;20911739;28;20287;-64
2022/01/10 19:04:26;;;;;;;25.57;13.33;;;6.50;96.30;;;;;;20876670;28;20268;-66
2022/01/10 19:14:27;;;;;;;24.73;12.57;;;6.50;96.40;;;;;;20828438;28;20296;-65
2022/01/10 19:24:29;;;;;;;25.23;13.20;;;6.50;96.60;;;;;;20829863;28;20272;-65
2022/01/10 19:34:31;;;;;;;30.20;13.87;;;6.50;96.40;;;;;;20828600;28;20289;-65
2022/01/10 19:44:32;;;;;;;24.60;13.73;;;6.40;96.60;;;;;;20835311;28;20209;-64
2022/01/10 19:54:34;;;;;;;22.37;12.90;;;6.30;96.50;;;;;;20842816;28;20261;-65
2022/01/10 20:04:36;;;;;;;30.20;14.13;;;6.20;96.60;;;;;;20841431;28;20213;-64
2022/01/10 20:14:38;;;;;;;31.87;15.47;;;6.10;96.70;;;;;;20840623;28;20901;-64
2022/01/10 20:24:40;;;;;;;24.27;11.70;;;5.90;96.70;;;;;;20841239;28;20264;-66
2022/01/10 20:34:42;;;;;;;25.20;12.07;;;5.90;96.80;;;;;;20840539;28;20244;-65
2022/01/10 20:44:44;;;;;;;26.70;11.87;;;6.00;96.90;;;;;;20837401;28;20241;-65
2022/01/10 20:54:47;;;;;;;25.73;13.33;;;5.90;96.80;;;;;;20838410;28;20596;-64
2022/01/10 21:04:49;;;;;;;27.10;15.00;;;5.80;97.10;;;;;;20834207;28;20875;-66
2022/01/10 21:14:51;;;;;;;26.70;13.33;;;5.80;97.20;;;;;;20837901;28;20234;-65
2022/01/10 21:24:57;;;;;;;23.20;12.53;;;5.80;97.50;;;;;;20836319;28;20619;-64
2022/01/10 21:34:58;;;;;;;23.87;12.90;;;5.70;97.40;;;;;;20835416;28;20236;-65
2022/01/10 21:45:00;;;;;;;23.17;12.07;;;5.70;97.20;;;;;;20834917;28;20213;-65
2022/01/10 21:55:04;;;;;;;26.40;13.20;;;5.80;97.30;;;;;;20833528;28;20252;-66
2022/01/10 22:05:10;;;;;;;22.40;13.40;;;5.80;97.10;;;;;;20832588;28;20210;-66
2022/01/10 22:15:12;;;;;;;28.87;14.90;;;5.80;97.10;;;;;;20832505;28;20240;-66
2022/01/10 22:25:16;;;;;;;28.37;15.07;;;5.90;96.90;;;;;;20831994;28;20260;-66
2022/01/10 22:44:56;;;;;;;25.90;13.53;;;5.70;96.80;;;;;;21067539;27;20558;-67
2022/01/10 22:54:58;;;;;;;26.07;13.03;;;5.70;97.20;;;;;;21067225;28;20217;-66
2022/01/10 23:05:00;;;;;;;23.70;13.43;;;5.60;97.30;;;;;;21067140;28;20215;-67
2022/01/10 23:15:04;;;;;;;24.93;13.93;;;5.60;97.20;;;;;;21057958;28;20346;-66
2022/01/10 23:25:07;;;;;;;27.57;15.17;;;5.70;97.30;;;;;;20976675;28;20239;-66
2022/01/10 23:35:09;;;;;;;28.40;15.27;;;5.70;97.30;;;;;;20980642;28;20205;-66
2022/01/10 23:45:11;;;;;;;25.40;14.83;;;5.80;97.50;;;;;;20985714;28;20219;-67
2022/01/10 23:55:18;;;;;;;30.73;14.87;;;5.70;97.20;;;;;;20930792;28;20257;-65
